Etusivu
METAR-TAF:

METAR-TAF

Lentoasemat :

Šiauliai, Liettua

Leveyspiiri: 55-53-38N, Pituuspiiri: 023-23-42E, korkeus merenpinnasta: 135 m

Tämänhetkinen sää

Tämä raportti tehtiin 37 minuuttia sitten, kello 00.20 UTC
Tuuli 5 kn lännestä/luoteesta
Lämpötila 18°C
Kosteus 94%
Ilmanpaine 1010 hPa
Näkyvyys 10 km tai enemmän

METAR: EYSA 220020Z AUTO 30005KT 9999NDV NCD 18/17 Q1010

Aika: 03:57 (00:57 UTC)

Sääennuste

Tämä raportti tehtiin 1 tunti ja 50 minuuttia sitten, kello 23.07 UTC
Ennuste voimassa 22. päivästä klo 00 UTC - 22. päivään klo 09 UTC
Tuuli 10 kn lännestä
Näkyvyys: 9000 m
Hajonneita pilviä 2500 ft:n korkeudessa
Todennäköisyys 40% :
Ajoittain
22. päivästä klo 02 UTC - 22. päivään klo 05 UTC
Näkyvyys: 1500 m
Hajonneita pilviä 400 ft:n korkeudessa
Matala sumu, utua

TAF: EYSA 212307Z 2200/2209 28010KT 9000 BKN025 PROB40 TEMPO 2202/2205 1500 MIFG BR BKN004

Säähavainnot ja -ennusteet yli 4000 lentoasemalta (METAR- ja TAF-raportit).

Käytössä olevat sääasemat on merkitty karttaan keltaisilla ja punaisilla pisteillä.

Aseta hiiri pisteen päälle nähdäksesi sääaseman nimen.

Klikkaa sitten nähdäksesi säähavainnot ja -ennusteet.

Kartan vaihtaminen: klikkaa mustalla rastilla varustettuja vihreitä pisteitä, niin voit zoomata sisään; viivalla varustettua vihreää pistettä, niin voit zoomata ulos tai vihreitä nuolia, niin pääset viereisille kartoille.


METAR-TAF: